sensor_id;sensor_type;location;lat;lon;timestamp;P1;durP1;ratioP1;P2;durP2;ratioP2
25932;SDS011;13731;51.166;4.474;2022-10-14T00:01:15;438.38;;;407.70;;
25932;SDS011;13731;51.166;4.474;2022-10-14T00:03:43;435.42;;;405.65;;
25932;SDS011;13731;51.166;4.474;2022-10-14T00:06:12;426.23;;;397.27;;
25932;SDS011;13731;51.166;4.474;2022-10-14T00:08:40;431.38;;;401.92;;
25932;SDS011;13731;51.166;4.474;2022-10-14T00:11:16;423.08;;;394.00;;
25932;SDS011;13731;51.166;4.474;2022-10-14T00:13:47;426.75;;;397.80;;
25932;SDS011;13731;51.166;4.474;2022-10-14T00:16:24;414.70;;;386.67;;
25932;SDS011;13731;51.166;4.474;2022-10-14T00:18:58;424.55;;;395.70;;
25932;SDS011;13731;51.166;4.474;2022-10-14T00:21:25;430.63;;;401.38;;
25932;SDS011;13731;51.166;4.474;2022-10-14T00:23:51;433.10;;;404.13;;
25932;SDS011;13731;51.166;4.474;2022-10-14T00:26:21;415.77;;;388.10;;
25932;SDS011;13731;51.166;4.474;2022-10-14T00:28:49;419.88;;;391.55;;
25932;SDS011;13731;51.166;4.474;2022-10-14T00:31:15;437.17;;;407.58;;
25932;SDS011;13731;51.166;4.474;2022-10-14T00:33:45;430.23;;;400.95;;
25932;SDS011;13731;51.166;4.474;2022-10-14T00:36:12;425.83;;;397.48;;
25932;SDS011;13731;51.166;4.474;2022-10-14T00:38:40;446.07;;;415.13;;
25932;SDS011;13731;51.166;4.474;2022-10-14T00:41:06;423.70;;;395.23;;
25932;SDS011;13731;51.166;4.474;2022-10-14T00:46:32;440.52;;;410.58;;
25932;SDS011;13731;51.166;4.474;2022-10-14T00:49:16;440.10;;;409.98;;
25932;SDS011;13731;51.166;4.474;2022-10-14T00:51:46;435.20;;;405.60;;
25932;SDS011;13731;51.166;4.474;2022-10-14T00:54:16;438.27;;;409.20;;
25932;SDS011;13731;51.166;4.474;2022-10-14T00:56:45;444.23;;;414.13;;
25932;SDS011;13731;51.166;4.474;2022-10-14T00:59:13;427.58;;;398.75;;
25932;SDS011;13731;51.166;4.474;2022-10-14T01:01:40;436.67;;;407.25;;
25932;SDS011;13731;51.166;4.474;2022-10-14T01:04:06;428.80;;;399.40;;
25932;SDS011;13731;51.166;4.474;2022-10-14T01:12:00;443.02;;;412.42;;
25932;SDS011;13731;51.166;4.474;2022-10-14T01:17:13;425.50;;;396.43;;
25932;SDS011;13731;51.166;4.474;2022-10-14T01:19:55;449.23;;;418.13;;
25932;SDS011;13731;51.166;4.474;2022-10-14T01:31:26;429.35;;;399.65;;
25932;SDS011;13731;51.166;4.474;2022-10-14T01:33:56;417.27;;;388.45;;
25932;SDS011;13731;51.166;4.474;2022-10-14T01:36:45;434.30;;;404.02;;
25932;SDS011;13731;51.166;4.474;2022-10-14T01:39:19;434.00;;;404.02;;
25932;SDS011;13731;51.166;4.474;2022-10-14T01:41:51;418.98;;;390.48;;
25932;SDS011;13731;51.166;4.474;2022-10-14T01:44:38;418.67;;;390.35;;
25932;SDS011;13731;51.166;4.474;2022-10-14T01:47:07;432.30;;;402.80;;
25932;SDS011;13731;51.166;4.474;2022-10-14T01:49:43;420.23;;;391.58;;
25932;SDS011;13731;51.166;4.474;2022-10-14T01:52:15;420.63;;;392.48;;
25932;SDS011;13731;51.166;4.474;2022-10-14T01:54:47;411.33;;;383.13;;
25932;SDS011;13731;51.166;4.474;2022-10-14T01:57:21;429.25;;;400.00;;
25932;SDS011;13731;51.166;4.474;2022-10-14T01:59:51;424.15;;;395.70;;
25932;SDS011;13731;51.166;4.474;2022-10-14T02:02:21;433.50;;;404.52;;
25932;SDS011;13731;51.166;4.474;2022-10-14T02:04:48;425.98;;;397.50;;
25932;SDS011;13731;51.166;4.474;2022-10-14T02:07:25;415.50;;;387.30;;
25932;SDS011;13731;51.166;4.474;2022-10-14T02:18:40;429.83;;;400.63;;
25932;SDS011;13731;51.166;4.474;2022-10-14T02:24:07;440.27;;;410.55;;
25932;SDS011;13731;51.166;4.474;2022-10-14T02:26:43;455.73;;;424.85;;
25932;SDS011;13731;51.166;4.474;2022-10-14T02:29:10;478.02;;;444.98;;
25932;SDS011;13731;51.166;4.474;2022-10-14T02:31:36;468.30;;;436.70;;
25932;SDS011;13731;51.166;4.474;2022-10-14T02:34:05;453.17;;;422.67;;
25932;SDS011;13731;51.166;4.474;2022-10-14T02:36:36;452.20;;;421.77;;
25932;SDS011;13731;51.166;4.474;2022-10-14T02:39:04;451.33;;;420.77;;
25932;SDS011;13731;51.166;4.474;2022-10-14T02:41:32;458.30;;;427.23;;
25932;SDS011;13731;51.166;4.474;2022-10-14T02:44:01;456.30;;;425.17;;
25932;SDS011;13731;51.166;4.474;2022-10-14T02:46:28;458.77;;;427.52;;
25932;SDS011;13731;51.166;4.474;2022-10-14T02:48:54;440.88;;;411.25;;
25932;SDS011;13731;51.166;4.474;2022-10-14T02:51:20;440.35;;;410.48;;
25932;SDS011;13731;51.166;4.474;2022-10-14T02:53:46;452.65;;;421.73;;
25932;SDS011;13731;51.166;4.474;2022-10-14T02:56:12;443.33;;;412.95;;
25932;SDS011;13731;51.166;4.474;2022-10-14T02:58:38;443.55;;;412.80;;
25932;SDS011;13731;51.166;4.474;2022-10-14T03:01:04;444.55;;;414.77;;
25932;SDS011;13731;51.166;4.474;2022-10-14T03:03:31;450.13;;;419.45;;
25932;SDS011;13731;51.166;4.474;2022-10-14T03:05:57;455.88;;;424.95;;
25932;SDS011;13731;51.166;4.474;2022-10-14T03:08:24;447.95;;;417.90;;
25932;SDS011;13731;51.166;4.474;2022-10-14T03:10:50;453.73;;;423.15;;
25932;SDS011;13731;51.166;4.474;2022-10-14T03:13:16;455.77;;;424.98;;
25932;SDS011;13731;51.166;4.474;2022-10-14T03:15:48;459.85;;;428.92;;
25932;SDS011;13731;51.166;4.474;2022-10-14T03:18:16;475.58;;;443.52;;
25932;SDS011;13731;51.166;4.474;2022-10-14T03:20:45;460.13;;;429.42;;
25932;SDS011;13731;51.166;4.474;2022-10-14T03:23:15;459.15;;;428.33;;
25932;SDS011;13731;51.166;4.474;2022-10-14T03:25:42;477.30;;;445.00;;
25932;SDS011;13731;51.166;4.474;2022-10-14T03:28:20;472.45;;;440.52;;
25932;SDS011;13731;51.166;4.474;2022-10-14T03:30:57;471.08;;;439.48;;
25932;SDS011;13731;51.166;4.474;2022-10-14T03:33:43;474.00;;;441.63;;
25932;SDS011;13731;51.166;4.474;2022-10-14T03:36:11;461.17;;;430.05;;
25932;SDS011;13731;51.166;4.474;2022-10-14T03:38:57;469.52;;;438.52;;
25932;SDS011;13731;51.166;4.474;2022-10-14T03:41:34;464.92;;;434.08;;
25932;SDS011;13731;51.166;4.474;2022-10-14T03:44:01;460.25;;;429.50;;
25932;SDS011;13731;51.166;4.474;2022-10-14T03:46:27;465.30;;;433.92;;
25932;SDS011;13731;51.166;4.474;2022-10-14T03:48:54;476.48;;;444.27;;
25932;SDS011;13731;51.166;4.474;2022-10-14T03:51:20;453.05;;;423.05;;
25932;SDS011;13731;51.166;4.474;2022-10-14T03:53:47;457.98;;;427.58;;
25932;SDS011;13731;51.166;4.474;2022-10-14T03:56:21;455.40;;;424.60;;
25932;SDS011;13731;51.166;4.474;2022-10-14T03:58:50;465.85;;;434.08;;
25932;SDS011;13731;51.166;4.474;2022-10-14T04:01:17;441.48;;;412.48;;
25932;SDS011;13731;51.166;4.474;2022-10-14T04:04:02;440.88;;;411.27;;
25932;SDS011;13731;51.166;4.474;2022-10-14T04:06:28;439.33;;;409.92;;
25932;SDS011;13731;51.166;4.474;2022-10-14T04:08:57;434.50;;;405.37;;
25932;SDS011;13731;51.166;4.474;2022-10-14T04:11:28;433.55;;;404.40;;
25932;SDS011;13731;51.166;4.474;2022-10-14T04:14:01;443.50;;;413.23;;
25932;SDS011;13731;51.166;4.474;2022-10-14T04:16:29;449.15;;;418.27;;
25932;SDS011;13731;51.166;4.474;2022-10-14T04:19:00;422.90;;;394.98;;
25932;SDS011;13731;51.166;4.474;2022-10-14T04:21:26;421.73;;;393.35;;
25932;SDS011;13731;51.166;4.474;2022-10-14T04:23:52;423.10;;;395.20;;
25932;SDS011;13731;51.166;4.474;2022-10-14T04:26:29;430.13;;;401.08;;
25932;SDS011;13731;51.166;4.474;2022-10-14T04:28:56;417.05;;;389.05;;
25932;SDS011;13731;51.166;4.474;2022-10-14T04:31:31;420.70;;;392.95;;
25932;SDS011;13731;51.166;4.474;2022-10-14T04:34:00;418.80;;;390.83;;
25932;SDS011;13731;51.166;4.474;2022-10-14T04:36:32;424.45;;;395.98;;
25932;SDS011;13731;51.166;4.474;2022-10-14T04:39:00;413.73;;;386.38;;
25932;SDS011;13731;51.166;4.474;2022-10-14T04:41:26;423.73;;;395.80;;
25932;SDS011;13731;51.166;4.474;2022-10-14T04:43:54;436.02;;;406.65;;
25932;SDS011;13731;51.166;4.474;2022-10-14T04:46:31;419.77;;;392.00;;
25932;SDS011;13731;51.166;4.474;2022-10-14T04:48:58;434.23;;;405.73;;
25932;SDS011;13731;51.166;4.474;2022-10-14T04:51:29;438.48;;;409.08;;
25932;SDS011;13731;51.166;4.474;2022-10-14T04:54:12;435.30;;;405.90;;
25932;SDS011;13731;51.166;4.474;2022-10-14T04:56:45;440.25;;;410.38;;
25932;SDS011;13731;51.166;4.474;2022-10-14T04:59:11;446.60;;;416.58;;
25932;SDS011;13731;51.166;4.474;2022-10-14T05:02:03;455.95;;;425.88;;
25932;SDS011;13731;51.166;4.474;2022-10-14T05:04:38;455.77;;;424.73;;
25932;SDS011;13731;51.166;4.474;2022-10-14T05:07:05;453.40;;;423.27;;
25932;SDS011;13731;51.166;4.474;2022-10-14T05:09:31;450.33;;;420.20;;
25932;SDS011;13731;51.166;4.474;2022-10-14T05:11:58;452.08;;;421.30;;
25932;SDS011;13731;51.166;4.474;2022-10-14T05:14:33;454.23;;;423.85;;
25932;SDS011;13731;51.166;4.474;2022-10-14T05:17:19;462.95;;;432.30;;
25932;SDS011;13731;51.166;4.474;2022-10-14T05:19:45;466.83;;;436.02;;
25932;SDS011;13731;51.166;4.474;2022-10-14T05:22:11;472.73;;;441.08;;
25932;SDS011;13731;51.166;4.474;2022-10-14T05:24:41;464.70;;;433.20;;
25932;SDS011;13731;51.166;4.474;2022-10-14T05:27:08;477.10;;;445.17;;
25932;SDS011;13731;51.166;4.474;2022-10-14T05:29:33;474.30;;;443.42;;
25932;SDS011;13731;51.166;4.474;2022-10-14T05:32:00;492.38;;;459.98;;
25932;SDS011;13731;51.166;4.474;2022-10-14T05:34:33;483.17;;;451.33;;
25932;SDS011;13731;51.166;4.474;2022-10-14T05:37:01;489.88;;;457.48;;
25932;SDS011;13731;51.166;4.474;2022-10-14T05:39:33;477.75;;;446.10;;
25932;SDS011;13731;51.166;4.474;2022-10-14T05:41:59;486.40;;;454.13;;
25932;SDS011;13731;51.166;4.474;2022-10-14T05:44:27;501.42;;;467.88;;
25932;SDS011;13731;51.166;4.474;2022-10-14T05:46:53;479.17;;;447.63;;
25932;SDS011;13731;51.166;4.474;2022-10-14T05:49:20;491.08;;;457.85;;
25932;SDS011;13731;51.166;4.474;2022-10-14T05:51:46;444.08;;;415.08;;
25932;SDS011;13731;51.166;4.474;2022-10-14T05:54:18;462.40;;;431.90;;
25932;SDS011;13731;51.166;4.474;2022-10-14T05:56:47;447.27;;;418.30;;
25932;SDS011;13731;51.166;4.474;2022-10-14T05:59:13;451.13;;;420.80;;
25932;SDS011;13731;51.166;4.474;2022-10-14T06:01:39;445.48;;;416.48;;
25932;SDS011;13731;51.166;4.474;2022-10-14T06:04:14;439.63;;;410.55;;
25932;SDS011;13731;51.166;4.474;2022-10-14T06:06:44;454.27;;;424.65;;
25932;SDS011;13731;51.166;4.474;2022-10-14T06:09:10;460.15;;;431.17;;
25932;SDS011;13731;51.166;4.474;2022-10-14T06:11:36;444.27;;;415.67;;
25932;SDS011;13731;51.166;4.474;2022-10-14T06:14:02;438.23;;;410.92;;
25932;SDS011;13731;51.166;4.474;2022-10-14T06:16:29;438.33;;;410.50;;
25932;SDS011;13731;51.166;4.474;2022-10-14T06:18:55;431.88;;;404.55;;
25932;SDS011;13731;51.166;4.474;2022-10-14T06:21:21;444.42;;;415.92;;
25932;SDS011;13731;51.166;4.474;2022-10-14T06:23:47;435.83;;;407.73;;
25932;SDS011;13731;51.166;4.474;2022-10-14T06:26:12;443.77;;;415.27;;
25932;SDS011;13731;51.166;4.474;2022-10-14T06:28:38;432.30;;;404.77;;
25932;SDS011;13731;51.166;4.474;2022-10-14T06:31:04;429.52;;;401.85;;
25932;SDS011;13731;51.166;4.474;2022-10-14T06:33:31;446.45;;;418.23;;
25932;SDS011;13731;51.166;4.474;2022-10-14T06:36:00;442.80;;;413.27;;
25932;SDS011;13731;51.166;4.474;2022-10-14T06:38:26;441.33;;;412.98;;
25932;SDS011;13731;51.166;4.474;2022-10-14T06:40:53;424.17;;;397.48;;
25932;SDS011;13731;51.166;4.474;2022-10-14T06:43:19;438.63;;;410.27;;
25932;SDS011;13731;51.166;4.474;2022-10-14T06:45:46;431.67;;;404.15;;
25932;SDS011;13731;51.166;4.474;2022-10-14T06:48:12;437.67;;;409.90;;
25932;SDS011;13731;51.166;4.474;2022-10-14T06:50:38;413.33;;;388.08;;
25932;SDS011;13731;51.166;4.474;2022-10-14T06:53:04;407.17;;;381.33;;
25932;SDS011;13731;51.166;4.474;2022-10-14T06:55:30;425.08;;;398.13;;
25932;SDS011;13731;51.166;4.474;2022-10-14T06:57:56;436.85;;;409.63;;
25932;SDS011;13731;51.166;4.474;2022-10-14T07:00:22;413.67;;;388.33;;
25932;SDS011;13731;51.166;4.474;2022-10-14T07:02:48;406.88;;;381.75;;
25932;SDS011;13731;51.166;4.474;2022-10-14T07:05:14;410.33;;;384.63;;
25932;SDS011;13731;51.166;4.474;2022-10-14T07:07:40;409.50;;;384.05;;
25932;SDS011;13731;51.166;4.474;2022-10-14T07:10:06;437.88;;;409.48;;
25932;SDS011;13731;51.166;4.474;2022-10-14T07:12:32;460.08;;;431.05;;
25932;SDS011;13731;51.166;4.474;2022-10-14T07:14:58;462.60;;;433.17;;
25932;SDS011;13731;51.166;4.474;2022-10-14T07:17:23;458.70;;;429.85;;
25932;SDS011;13731;51.166;4.474;2022-10-14T07:19:49;457.42;;;427.95;;
25932;SDS011;13731;51.166;4.474;2022-10-14T07:22:15;471.33;;;440.73;;
25932;SDS011;13731;51.166;4.474;2022-10-14T07:24:42;450.73;;;422.58;;
25932;SDS011;13731;51.166;4.474;2022-10-14T07:27:08;452.20;;;423.55;;
25932;SDS011;13731;51.166;4.474;2022-10-14T07:29:34;439.17;;;411.08;;
25932;SDS011;13731;51.166;4.474;2022-10-14T07:32:00;453.35;;;424.38;;
25932;SDS011;13731;51.166;4.474;2022-10-14T07:34:27;461.02;;;431.30;;
25932;SDS011;13731;51.166;4.474;2022-10-14T07:36:53;454.00;;;424.70;;
25932;SDS011;13731;51.166;4.474;2022-10-14T07:39:19;468.90;;;438.17;;
25932;SDS011;13731;51.166;4.474;2022-10-14T07:41:44;451.27;;;422.33;;
25932;SDS011;13731;51.166;4.474;2022-10-14T07:44:10;451.27;;;422.15;;
25932;SDS011;13731;51.166;4.474;2022-10-14T07:46:38;444.90;;;416.25;;
25932;SDS011;13731;51.166;4.474;2022-10-14T07:49:08;441.38;;;412.80;;
25932;SDS011;13731;51.166;4.474;2022-10-14T07:51:36;446.67;;;417.42;;
25932;SDS011;13731;51.166;4.474;2022-10-14T07:54:04;454.77;;;425.38;;
25932;SDS011;13731;51.166;4.474;2022-10-14T07:56:34;467.73;;;437.45;;
25932;SDS011;13731;51.166;4.474;2022-10-14T07:59:00;455.63;;;426.05;;
25932;SDS011;13731;51.166;4.474;2022-10-14T08:01:26;464.17;;;433.85;;
25932;SDS011;13731;51.166;4.474;2022-10-14T08:03:54;434.20;;;406.15;;
25932;SDS011;13731;51.166;4.474;2022-10-14T08:06:20;439.25;;;410.73;;
25932;SDS011;13731;51.166;4.474;2022-10-14T08:08:46;442.70;;;414.20;;
25932;SDS011;13731;51.166;4.474;2022-10-14T08:11:14;464.98;;;434.77;;
25932;SDS011;13731;51.166;4.474;2022-10-14T08:13:42;492.63;;;460.27;;
25932;SDS011;13731;51.166;4.474;2022-10-14T08:16:18;472.40;;;440.98;;
25932;SDS011;13731;51.166;4.474;2022-10-14T08:18:44;512.90;;;478.95;;
25932;SDS011;13731;51.166;4.474;2022-10-14T08:21:11;475.50;;;443.95;;
25932;SDS011;13731;51.166;4.474;2022-10-14T08:23:37;471.83;;;440.50;;
25932;SDS011;13731;51.166;4.474;2022-10-14T08:26:03;478.95;;;447.30;;
25932;SDS011;13731;51.166;4.474;2022-10-14T08:28:38;486.55;;;453.17;;
25932;SDS011;13731;51.166;4.474;2022-10-14T08:31:03;493.75;;;460.23;;
25932;SDS011;13731;51.166;4.474;2022-10-14T08:33:29;518.65;;;483.00;;
25932;SDS011;13731;51.166;4.474;2022-10-14T08:35:55;507.52;;;472.75;;
25932;SDS011;13731;51.166;4.474;2022-10-14T08:38:21;502.75;;;468.00;;
25932;SDS011;13731;51.166;4.474;2022-10-14T08:40:55;504.75;;;470.60;;
25932;SDS011;13731;51.166;4.474;2022-10-14T08:46:23;502.27;;;468.63;;
25932;SDS011;13731;51.166;4.474;2022-10-14T08:49:45;520.00;;;484.33;;
25932;SDS011;13731;51.166;4.474;2022-10-14T08:52:16;506.23;;;472.58;;
25932;SDS011;13731;51.166;4.474;2022-10-14T08:55:13;488.80;;;456.17;;
25932;SDS011;13731;51.166;4.474;2022-10-14T08:57:59;481.48;;;450.00;;
25932;SDS011;13731;51.166;4.474;2022-10-14T09:00:31;468.13;;;436.95;;
25932;SDS011;13731;51.166;4.474;2022-10-14T09:02:58;474.25;;;442.65;;
25932;SDS011;13731;51.166;4.474;2022-10-14T09:05:27;472.33;;;440.80;;
25932;SDS011;13731;51.166;4.474;2022-10-14T09:07:54;469.58;;;437.75;;
25932;SDS011;13731;51.166;4.474;2022-10-14T09:12:50;459.73;;;429.42;;
25932;SDS011;13731;51.166;4.474;2022-10-14T09:18:10;448.45;;;419.17;;
25932;SDS011;13731;51.166;4.474;2022-10-14T09:20:58;454.45;;;424.35;;
25932;SDS011;13731;51.166;4.474;2022-10-14T09:23:26;450.98;;;421.75;;
25932;SDS011;13731;51.166;4.474;2022-10-14T09:26:00;424.23;;;396.92;;
25932;SDS011;13731;51.166;4.474;2022-10-14T09:28:36;429.33;;;401.15;;
25932;SDS011;13731;51.166;4.474;2022-10-14T09:31:04;430.52;;;402.15;;
25932;SDS011;13731;51.166;4.474;2022-10-14T09:33:34;420.05;;;393.15;;
25932;SDS011;13731;51.166;4.474;2022-10-14T09:36:05;441.80;;;413.77;;
25932;SDS011;13731;51.166;4.474;2022-10-14T09:38:43;442.05;;;413.38;;
25932;SDS011;13731;51.166;4.474;2022-10-14T09:41:15;512.03;;;475.98;;
25932;SDS011;13731;51.166;4.474;2022-10-14T09:44:11;440.55;;;413.15;;
25932;SDS011;13731;51.166;4.474;2022-10-14T09:47:01;473.77;;;443.30;;
25932;SDS011;13731;51.166;4.474;2022-10-14T09:49:45;479.80;;;447.30;;
25932;SDS011;13731;51.166;4.474;2022-10-14T09:52:21;527.50;;;491.45;;
25932;SDS011;13731;51.166;4.474;2022-10-14T09:54:52;475.35;;;444.77;;
25932;SDS011;13731;51.166;4.474;2022-10-14T09:57:20;471.17;;;440.77;;
25932;SDS011;13731;51.166;4.474;2022-10-14T09:59:52;488.02;;;456.73;;
25932;SDS011;13731;51.166;4.474;2022-10-14T10:02:20;574.55;;;534.15;;
25932;SDS011;13731;51.166;4.474;2022-10-14T10:04:48;479.88;;;448.75;;
25932;SDS011;13731;51.166;4.474;2022-10-14T10:07:33;467.33;;;437.02;;
25932;SDS011;13731;51.166;4.474;2022-10-14T10:10:00;475.42;;;444.55;;
25932;SDS011;13731;51.166;4.474;2022-10-14T10:12:30;441.17;;;413.48;;
25932;SDS011;13731;51.166;4.474;2022-10-14T10:15:02;472.02;;;441.98;;
25932;SDS011;13731;51.166;4.474;2022-10-14T10:17:31;470.25;;;439.95;;
25932;SDS011;13731;51.166;4.474;2022-10-14T10:22:54;460.42;;;431.48;;
25932;SDS011;13731;51.166;4.474;2022-10-14T10:25:22;432.48;;;405.02;;
25932;SDS011;13731;51.166;4.474;2022-10-14T10:27:57;449.05;;;421.02;;
25932;SDS011;13731;51.166;4.474;2022-10-14T10:30:28;414.80;;;388.92;;
25932;SDS011;13731;51.166;4.474;2022-10-14T10:43:56;432.08;;;404.98;;
25932;SDS011;13731;51.166;4.474;2022-10-14T10:55:12;404.83;;;379.42;;
25932;SDS011;13731;51.166;4.474;2022-10-14T11:00:31;420.20;;;394.17;;
25932;SDS011;13731;51.166;4.474;2022-10-14T11:03:23;397.73;;;372.60;;
25932;SDS011;13731;51.166;4.474;2022-10-14T11:05:57;396.70;;;372.15;;
25932;SDS011;13731;51.166;4.474;2022-10-14T11:14:22;411.65;;;385.83;;
25932;SDS011;13731;51.166;4.474;2022-10-14T11:17:10;401.75;;;377.00;;
25932;SDS011;13731;51.166;4.474;2022-10-14T11:27:42;433.25;;;407.15;;
25932;SDS011;13731;51.166;4.474;2022-10-14T11:43:54;349.58;;;328.63;;
25932;SDS011;13731;51.166;4.474;2022-10-14T11:46:28;323.45;;;304.52;;
25932;SDS011;13731;51.166;4.474;2022-10-14T11:49:19;342.90;;;322.98;;
25932;SDS011;13731;51.166;4.474;2022-10-14T11:51:56;323.88;;;305.27;;
25932;SDS011;13731;51.166;4.474;2022-10-14T12:05:14;345.02;;;324.98;;
25932;SDS011;13731;51.166;4.474;2022-10-14T12:07:47;358.40;;;337.15;;
25932;SDS011;13731;51.166;4.474;2022-10-14T12:10:28;387.77;;;364.52;;
25932;SDS011;13731;51.166;4.474;2022-10-14T12:12:58;374.50;;;351.83;;
25932;SDS011;13731;51.166;4.474;2022-10-14T12:15:25;419.52;;;393.45;;
25932;SDS011;13731;51.166;4.474;2022-10-14T12:26:03;337.83;;;318.30;;
25932;SDS011;13731;51.166;4.474;2022-10-14T12:28:36;350.67;;;330.15;;
25932;SDS011;13731;51.166;4.474;2022-10-14T12:31:19;351.33;;;330.27;;
25932;SDS011;13731;51.166;4.474;2022-10-14T12:36:45;367.48;;;345.67;;
